Time;durP1;ratioP1;P1;durP2;ratioP2;P2;SDS_P1;SDS_P2;PMS_P1;PMS_P2;Temp;Humidity;BMP_temperature;BMP_pressure;BME280_temperature;BME280_humidity;BME280_pressure;Samples;Min_cycle;Max_cycle;Signal;HPM_P1;HPM_P2
2023/01/21 00:00:54;;;;;;;25.63;16.70;;;;;;;4.11;77.51;94649.63;5032958;28;20071;-78
2023/01/21 00:03:20;;;;;;;24.80;14.65;;;;;;;4.22;77.59;94653.16;5031975;28;20033;-78
2023/01/21 00:05:45;;;;;;;26.35;13.80;;;;;;;4.25;77.19;94653.47;5032064;28;20431;-78
2023/01/21 00:08:11;;;;;;;23.98;13.27;;;;;;;4.22;76.77;94656.56;5030636;28;20041;-76
2023/01/21 00:10:36;;;;;;;20.75;12.68;;;;;;;4.39;76.60;94671.44;5031171;28;20269;-77
2023/01/21 00:13:02;;;;;;;22.95;13.45;;;;;;;4.35;76.45;94655.38;5032035;28;20099;-78
2023/01/21 00:15:27;;;;;;;21.02;12.77;;;;;;;3.77;75.81;94565.03;5032114;28;20071;-77
2023/01/21 00:17:53;;;;;;;21.30;13.07;;;;;;;4.42;76.20;94676.22;5031843;28;20034;-77
2023/01/21 00:20:19;;;;;;;22.77;14.00;;;;;;;4.36;76.98;94670.09;5031579;28;20041;-77
2023/01/21 00:22:44;;;;;;;21.50;13.60;;;;;;;4.03;76.52;94618.59;5030420;28;20033;-77
2023/01/21 00:25:09;;;;;;;22.17;12.13;;;;;;;4.13;76.34;94634.41;5031871;28;20037;-78
2023/01/21 00:27:35;;;;;;;21.38;11.50;;;;;;;3.88;76.02;94657.75;5031891;28;20045;-77
2023/01/21 00:30:00;;;;;;;17.88;11.57;;;;;;;4.10;76.27;94660.38;5063139;28;20045;-77
2023/01/21 00:32:26;;;;;;;18.35;11.48;;;;;;;4.00;76.38;94621.69;5050492;28;20474;-77
2023/01/21 00:34:51;;;;;;;20.55;12.35;;;;;;;4.26;76.20;94668.19;5057267;28;20145;-77
2023/01/21 00:37:17;;;;;;;20.83;13.07;;;;;;;4.33;75.58;94675.84;5063474;28;20065;-78
2023/01/21 00:39:42;;;;;;;19.05;12.23;;;;;;;3.93;76.43;94667.50;5047887;28;20112;-77
2023/01/21 00:42:10;;;;;;;19.30;12.23;;;;;;;3.86;76.41;94637.00;5028043;28;20076;-77
2023/01/21 00:44:38;;;;;;;20.40;12.73;;;;;;;3.82;76.35;94607.06;5031964;28;20491;-77
2023/01/21 00:47:04;;;;;;;21.70;13.68;;;;;;;4.21;76.09;94662.06;5030152;28;20488;-76
2023/01/21 00:49:29;;;;;;;24.13;13.77;;;;;;;4.11;77.56;94623.41;5031100;28;20095;-77
2023/01/21 00:51:56;;;;;;;22.02;14.25;;;;;;;4.36;76.48;94664.06;5031030;28;20049;-77
2023/01/21 00:54:21;;;;;;;21.33;13.02;;;;;;;4.17;76.38;94650.47;5029542;28;20114;-77
2023/01/21 00:56:47;;;;;;;23.67;14.65;;;;;;;4.08;76.93;94623.88;5058747;28;20030;-77
2023/01/21 00:59:12;;;;;;;26.02;15.77;;;;;;;3.42;76.37;94517.44;5046166;28;20056;-77
2023/01/21 01:01:38;;;;;;;24.42;14.05;;;;;;;4.18;77.11;94647.63;5031131;28;20033;-77
2023/01/21 01:04:07;;;;;;;22.27;14.45;;;;;;;3.96;76.93;94667.03;5030764;28;20048;-77
2023/01/21 01:06:32;;;;;;;27.17;14.65;;;;;;;4.05;77.35;94673.41;5030004;28;20048;-77
2023/01/21 01:08:58;;;;;;;25.85;14.90;;;;;;;3.96;77.67;94646.03;5031627;28;20316;-77
2023/01/21 01:11:25;;;;;;;23.02;14.45;;;;;;;4.19;77.25;94654.44;5030282;28;20041;-77
2023/01/21 01:13:54;;;;;;;22.83;14.20;;;;;;;3.96;76.69;94601.44;5030496;28;20471;-77
2023/01/21 01:16:20;;;;;;;24.88;14.43;;;;;;;4.31;77.19;94651.69;5031315;28;20103;-77
2023/01/21 01:18:46;;;;;;;24.90;14.85;;;;;;;4.19;76.15;94635.28;5029575;28;20069;-77
2023/01/21 01:21:14;;;;;;;23.95;14.10;;;;;;;4.02;76.49;94598.63;5030538;28;20127;-77
2023/01/21 01:23:41;;;;;;;22.38;13.52;;;;;;;3.79;76.35;94568.22;5030695;28;20112;-77
2023/01/21 01:26:11;;;;;;;27.25;13.52;;;;;;;4.41;76.30;94658.88;5029452;28;20045;-77
2023/01/21 01:28:38;;;;;;;21.90;13.75;;;;;;;4.41;76.26;94643.91;5013047;28;20049;-77
2023/01/21 01:31:07;;;;;;;22.75;13.75;;;;;;;4.25;75.99;94653.47;5030599;28;20122;-77
2023/01/21 01:33:32;;;;;;;25.25;12.80;;;;;;;3.81;75.92;94571.34;5030237;28;20484;-77
2023/01/21 01:36:02;;;;;;;21.40;12.25;;;;;;;3.77;75.44;94578.16;5030182;28;20025;-77
2023/01/21 01:38:27;;;;;;;21.80;12.07;;;;;;;3.78;76.01;94589.44;5028447;28;20130;-77
2023/01/21 01:40:53;;;;;;;20.77;11.63;;;;;;;4.14;75.93;94596.66;5030445;28;20092;-77
2023/01/21 01:43:46;;;;;;;22.92;11.75;;;;;;;4.16;75.63;94606.91;5030098;28;20029;-77
2023/01/21 01:46:12;;;;;;;16.88;10.88;;;;;;;3.95;76.98;94624.25;5028696;28;20530;-77
2023/01/21 01:48:39;;;;;;;20.48;10.93;;;;;;;3.60;76.92;94560.88;5029085;28;20041;-77
2023/01/21 01:51:08;;;;;;;18.35;11.40;;;;;;;3.78;77.20;94626.94;5030102;28;20366;-77
2023/01/21 01:53:35;;;;;;;21.27;12.20;;;;;;;3.48;76.83;94551.34;5027923;28;20050;-77
2023/01/21 01:56:01;;;;;;;17.52;10.98;;;;;;;3.81;77.19;94566.13;5028708;28;20037;-77
2023/01/21 01:58:29;;;;;;;16.75;10.80;;;;;;;4.00;76.39;94599.91;5029722;28;20045;-77
2023/01/21 02:00:55;;;;;;;15.90;9.63;;;;;;;3.53;76.58;94537.47;5028807;28;20475;-77
2023/01/21 02:06:05;;;;;;;16.45;10.55;;;;;;;4.03;76.59;94570.56;5030062;28;20055;-77
2023/01/21 02:08:33;;;;;;;17.30;10.98;;;;;;;4.04;75.60;94591.31;5030279;28;20041;-77
2023/01/21 02:10:59;;;;;;;17.00;10.80;;;;;;;3.56;76.19;94549.31;5030397;28;20095;-77
2023/01/21 02:13:26;;;;;;;15.32;10.30;;;;;;;3.83;76.72;94571.13;5027570;28;20083;-78
2023/01/21 02:16:04;;;;;;;17.73;11.63;;;;;;;4.12;76.13;94616.31;5029609;28;20043;-77
2023/01/21 02:18:51;;;;;;;19.88;11.15;;;;;;;3.96;76.81;94567.34;5046449;28;20044;-75
2023/01/21 02:21:16;;;;;;;18.98;11.43;;;;;;;3.88;77.10;94590.34;5011887;28;20471;-75
2023/01/21 02:24:00;;;;;;;19.88;11.98;;;;;;;3.84;77.19;94573.50;5061057;28;20401;-74
2023/01/21 02:26:34;;;;;;;17.17;11.18;;;;;;;3.85;77.24;94569.06;5029927;28;20080;-74
2023/01/21 02:29:36;;;;;;;18.77;11.38;;;;;;;3.75;76.96;94543.50;5029660;28;20493;-75
2023/01/21 02:32:35;;;;;;;15.73;10.35;;;;;;;4.03;76.53;94558.25;5029045;28;20041;-74
2023/01/21 02:35:17;;;;;;;20.20;11.93;;;;;;;3.91;76.61;94554.16;5028832;28;20057;-74
2023/01/21 02:37:53;;;;;;;19.17;12.13;;;;;;;3.74;77.08;94530.63;5029581;28;20047;-74
2023/01/21 02:40:34;;;;;;;21.60;12.32;;;;;;;3.95;76.40;94566.53;5029969;28;20514;-74
2023/01/21 02:43:07;;;;;;;20.45;11.27;;;;;;;3.91;76.91;94554.94;5029106;28;20537;-74
2023/01/21 02:45:41;;;;;;;20.35;11.98;;;;;;;3.98;76.69;94552.13;5029744;28;20033;-73
2023/01/21 02:48:15;;;;;;;20.75;12.05;;;;;;;3.88;77.18;94560.69;5029441;28;20032;-74
2023/01/21 02:50:48;;;;;;;20.10;12.50;;;;;;;3.48;77.03;94488.41;5028245;28;20037;-74
2023/01/21 02:53:25;;;;;;;18.35;11.45;;;;;;;3.94;76.35;94557.09;5027192;28;20091;-74
2023/01/21 02:55:51;;;;;;;20.83;12.38;;;;;;;4.03;76.36;94552.19;5029209;28;20037;-74
2023/01/21 02:58:22;;;;;;;22.10;11.57;;;;;;;3.74;75.87;94504.41;5028342;28;20072;-74
2023/01/21 03:01:22;;;;;;;18.17;11.18;;;;;;;4.02;75.64;94546.16;5061805;28;20037;-74
2023/01/21 03:03:56;;;;;;;19.13;10.75;;;;;;;4.08;75.90;94539.13;5028776;28;20034;-74
2023/01/21 03:06:30;;;;;;;18.05;11.23;;;;;;;4.02;76.07;94535.66;5029507;28;20044;-74
2023/01/21 03:09:12;;;;;;;18.50;12.27;;;;;;;3.36;76.10;94445.81;5029147;28;20104;-74
2023/01/21 03:11:40;;;;;;;;;;;;;;;3.93;76.20;94525.84;5028669;28;20029;-74
2023/01/21 03:17:16;;;;;;;16.60;10.82;;;;;;;3.95;75.92;94534.28;5029782;28;20052;-74
2023/01/21 03:19:49;;;;;;;15.35;9.32;;;;;;;3.45;75.65;94440.91;5028996;28;20037;-74
2023/01/21 03:22:20;;;;;;;17.40;9.88;;;;;;;3.44;75.84;94440.13;5029068;28;20041;-74
2023/01/21 03:24:48;;;;;;;;;;;;;;;3.94;75.29;94525.59;5028261;28;20030;-74
2023/01/21 03:27:18;;;;;;;17.30;9.52;;;;;;;3.94;75.84;94524.81;5010674;28;19918;-74
2023/01/21 03:29:47;;;;;;;16.55;9.70;;;;;;;3.53;75.54;94450.97;5029461;28;20047;-74
2023/01/21 03:32:15;;;;;;;13.88;9.30;;;;;;;3.09;75.80;94403.88;5028661;28;20025;-74
2023/01/21 03:34:44;;;;;;;18.42;10.23;;;;;;;3.28;75.85;94429.75;5029020;28;20037;-74
2023/01/21 03:37:31;;;;;;;16.83;10.23;;;;;;;3.76;75.97;94502.34;5027802;28;20029;-74
2023/01/21 03:40:08;;;;;;;18.60;10.05;;;;;;;3.77;76.17;94486.34;5028957;28;20033;-74
2023/01/21 03:42:34;;;;;;;18.33;9.75;;;;;;;3.68;75.66;94463.44;5028973;28;20033;-74
2023/01/21 03:45:00;;;;;;;17.10;10.75;;;;;;;3.65;76.07;94462.13;5027409;28;20035;-74
2023/01/21 03:47:27;;;;;;;15.93;10.45;;;;;;;3.80;75.89;94485.88;5028977;28;20116;-74
2023/01/21 03:49:56;;;;;;;16.42;10.43;;;;;;;3.85;75.90;94492.97;5028755;28;20087;-74
2023/01/21 03:52:24;;;;;;;17.77;11.00;;;;;;;3.86;75.71;94484.88;5027366;28;20030;-75
2023/01/21 03:54:49;;;;;;;16.73;10.63;;;;;;;3.76;75.88;94484.75;5060500;28;20491;-75
2023/01/21 03:57:15;;;;;;;17.75;11.13;;;;;;;3.44;75.71;94439.34;5028841;28;20108;-75
2023/01/21 03:59:40;;;;;;;17.98;12.05;;;;;;;3.75;75.65;94485.81;5027834;28;20518;-75
2023/01/21 04:02:06;;;;;;;21.85;11.68;;;;;;;3.30;75.82;94422.41;5032238;28;20041;-75
2023/01/21 04:04:31;;;;;;;21.63;11.95;;;;;;;3.70;75.95;94477.09;5031381;28;20465;-74
2023/01/21 04:06:57;;;;;;;20.35;12.00;;;;;;;3.70;76.00;94490.22;5032336;28;20033;-75
2023/01/21 04:09:22;;;;;;;18.90;11.90;;;;;;;3.28;76.39;94472.44;5032529;28;20069;-75
2023/01/21 04:11:47;;;;;;;18.63;11.75;;;;;;;3.09;76.25;94418.78;5032352;28;20033;-75
2023/01/21 04:14:13;;;;;;;21.15;11.60;;;;;;;3.56;76.03;94484.56;5064141;28;20033;-75
2023/01/21 04:16:38;;;;;;;18.67;11.52;;;;;;;3.36;75.78;94434.53;5063724;28;20499;-75
2023/01/21 04:19:04;;;;;;;17.85;11.50;;;;;;;3.32;76.29;94412.50;5032025;28;20044;-75
2023/01/21 04:21:29;;;;;;;18.63;12.18;;;;;;;3.53;76.08;94468.53;5031008;28;20530;-75
2023/01/21 04:23:55;;;;;;;18.40;11.18;;;;;;;3.05;76.15;94402.75;5030160;28;20021;-75
2023/01/21 04:26:20;;;;;;;22.75;12.10;;;;;;;2.84;77.11;94419.28;5032174;28;20042;-74
2023/01/21 04:28:46;;;;;;;20.98;12.07;;;;;;;2.80;77.55;94389.41;5032120;28;20072;-75
2023/01/21 04:31:11;;;;;;;21.80;12.90;;;;;;;3.04;77.45;94416.13;5064088;28;20052;-75
2023/01/21 04:33:36;;;;;;;22.35;13.40;;;;;;;2.53;77.34;94338.78;5031645;28;20381;-75
2023/01/21 04:36:02;;;;;;;23.27;13.50;;;;;;;3.18;77.54;94447.97;5031742;28;20044;-75
2023/01/21 04:38:27;;;;;;;21.02;12.60;;;;;;;3.28;76.98;94456.72;5031821;28;20052;-75
2023/01/21 04:40:53;;;;;;;22.92;13.85;;;;;;;3.42;77.20;94471.06;5031875;28;20029;-75
2023/01/21 04:43:18;;;;;;;21.55;12.88;;;;;;;3.50;77.19;94482.94;5031509;28;20112;-75
2023/01/21 04:45:44;;;;;;;20.65;12.38;;;;;;;3.15;76.90;94404.72;5031532;28;20029;-74
2023/01/21 04:48:09;;;;;;;20.70;12.05;;;;;;;3.38;77.63;94469.16;5031364;28;20033;-75
2023/01/21 04:50:35;;;;;;;19.70;11.43;;;;;;;3.13;77.21;94419.88;5031775;28;20396;-74
2023/01/21 04:53:00;;;;;;;20.42;10.88;;;;;;;3.35;77.33;94464.44;5031404;28;20057;-74
2023/01/21 04:55:26;;;;;;;18.65;10.77;;;;;;;3.06;77.38;94437.63;5030183;28;20044;-74
2023/01/21 04:57:51;;;;;;;15.98;10.73;;;;;;;3.70;77.01;94521.69;5030932;28;20032;-74
2023/01/21 05:00:17;;;;;;;21.25;11.52;;;;;;;3.73;77.14;94505.47;5030157;28;20037;-74
2023/01/21 05:02:42;;;;;;;35.75;17.15;;;;;;;3.44;77.02;94455.06;5031090;28;20033;-75
2023/01/21 05:05:08;;;;;;;27.73;15.63;;;;;;;3.30;77.03;94467.75;5031518;28;20037;-75
2023/01/21 05:07:33;;;;;;;22.15;13.63;;;;;;;3.15;77.46;94437.97;5030796;28;20013;-75
2023/01/21 05:09:59;;;;;;;20.88;12.15;;;;;;;3.68;77.74;94511.44;5031310;28;20494;-74
2023/01/21 05:12:24;;;;;;;19.38;11.55;;;;;;;3.66;77.41;94515.34;5030716;28;20022;-74
2023/01/21 05:14:53;;;;;;;19.52;11.32;;;;;;;2.92;78.92;94457.34;5029885;28;20025;-74
2023/01/21 05:17:19;;;;;;;15.02;9.77;;;;;;;3.60;78.00;94534.66;5031116;28;20160;-74
2023/01/21 05:19:45;;;;;;;16.23;9.80;;;;;;;3.67;77.72;94549.19;5029023;28;20507;-74
2023/01/21 05:22:11;;;;;;;18.52;10.40;;;;;;;3.35;77.58;94473.09;5029545;28;20113;-74
2023/01/21 05:24:36;;;;;;;17.10;10.60;;;;;;;3.82;78.00;94541.47;5031246;28;20025;-74
2023/01/21 05:27:01;;;;;;;14.98;10.52;;;;;;;3.69;77.54;94534.00;5030709;28;20031;-75
2023/01/21 05:29:27;;;;;;;17.05;11.38;;;;;;;3.45;76.95;94481.03;5030364;28;20053;-75
2023/01/21 05:31:52;;;;;;;16.73;10.38;;;;;;;3.44;77.15;94465.53;5028584;28;20120;-75
2023/01/21 05:34:18;;;;;;;17.38;10.43;;;;;;;3.84;76.29;94541.22;5030643;28;20040;-75
2023/01/21 05:36:43;;;;;;;18.63;10.48;;;;;;;3.91;76.14;94562.03;5049458;28;20033;-74
2023/01/21 05:39:08;;;;;;;20.52;11.82;;;;;;;3.62;76.28;94501.94;5024556;28;20033;-74
2023/01/21 05:41:34;;;;;;;16.45;10.30;;;;;;;3.93;76.02;94531.09;5030609;28;20476;-74
2023/01/21 05:43:59;;;;;;;20.15;11.32;;;;;;;3.64;76.39;94483.34;5045676;28;20030;-74
2023/01/21 05:46:25;;;;;;;23.48;12.30;;;;;;;3.95;76.08;94547.38;5028367;28;20060;-75
2023/01/21 05:48:50;;;;;;;21.25;10.75;;;;;;;3.51;77.28;94554.50;5030175;28;20045;-75
2023/01/21 05:51:15;;;;;;;23.35;12.70;;;;;;;2.63;77.63;94444.41;5030424;28;20361;-74
2023/01/21 05:53:41;;;;;;;20.38;12.07;;;;;;;2.58;78.09;94473.16;5029815;28;20107;-74
2023/01/21 05:56:06;;;;;;;36.20;14.75;;;;;;;2.73;78.21;94472.56;5030355;28;20040;-74
2023/01/21 05:58:32;;;;;;;32.72;13.52;;;;;;;3.02;79.48;94567.50;5028882;28;20056;-74
2023/01/21 06:00:57;;;;;;;25.23;14.93;;;;;;;2.95;79.12;94569.50;5028226;28;20029;-74
2023/01/21 06:03:23;;;;;;;25.15;13.77;;;;;;;2.88;79.65;94540.06;5029451;28;20383;-74
2023/01/21 06:05:50;;;;;;;23.83;14.38;;;;;;;3.20;78.98;94558.59;5029427;28;20151;-75
2023/01/21 06:08:16;;;;;;;23.88;13.77;;;;;;;2.92;78.10;94479.09;5028733;28;20215;-75
2023/01/21 06:10:41;;;;;;;28.08;15.73;;;;;;;3.34;78.26;94551.94;5029943;28;20151;-74
2023/01/21 06:13:10;;;;;;;27.23;14.73;;;;;;;3.13;78.21;94497.72;5027319;28;20479;-74
2023/01/21 06:15:36;;;;;;;24.20;13.50;;;;;;;3.08;77.60;94493.19;5030074;28;20036;-74
2023/01/21 06:18:01;;;;;;;30.88;14.95;;;;;;;3.46;77.39;94552.59;5028988;28;20457;-74
2023/01/21 06:20:30;;;;;;;26.23;14.20;;;;;;;3.53;77.08;94560.28;5026792;28;20041;-74
2023/01/21 06:23:00;;;;;;;25.25;14.32;;;;;;;3.02;77.10;94494.16;5026869;28;20026;-75
2023/01/21 06:25:26;;;;;;;26.20;14.60;;;;;;;3.01;77.45;94485.50;5028103;28;20030;-76
2023/01/21 06:27:56;;;;;;;25.15;14.40;;;;;;;2.98;77.18;94488.59;5026267;28;20412;-76
2023/01/21 06:30:25;;;;;;;27.70;15.18;;;;;;;3.51;77.56;94562.38;5026300;28;20322;-76
2023/01/21 06:32:51;;;;;;;33.58;15.55;;;;;;;3.43;77.25;94553.13;5025482;28;20091;-76
2023/01/21 06:35:17;;;;;;;29.75;16.80;;;;;;;3.41;77.01;94563.84;5027636;28;20462;-74
2023/01/21 06:37:43;;;;;;;32.22;16.98;;;;;;;3.43;77.23;94556.50;5029016;28;20087;-75
2023/01/21 06:40:10;;;;;;;32.95;16.00;;;;;;;3.50;77.15;94561.59;5027539;28;20120;-76
2023/01/21 06:42:35;;;;;;;33.75;15.55;;;;;;;3.54;76.73;94572.34;5028107;28;20445;-75
2023/01/21 06:45:01;;;;;;;27.83;14.18;;;;;;;3.24;76.82;94522.97;5028462;28;20515;-75
2023/01/21 06:47:27;;;;;;;31.17;14.60;;;;;;;2.85;76.60;94469.84;5028100;28;20159;-75
2023/01/21 06:49:52;;;;;;;26.52;14.48;;;;;;;3.49;77.06;94581.75;5027519;28;20048;-75
2023/01/21 06:52:17;;;;;;;30.83;15.95;;;;;;;3.09;77.12;94531.44;5021341;28;20128;-76
2023/01/21 06:54:43;;;;;;;27.83;15.30;;;;;;;2.84;77.34;94497.06;5014501;28;20267;-74
2023/01/21 06:57:09;;;;;;;25.33;15.07;;;;;;;3.06;77.46;94503.09;5060871;28;20030;-73
2023/01/21 06:59:34;;;;;;;25.17;16.67;;;;;;;3.30;77.09;94537.72;5029739;28;20029;-74
2023/01/21 07:02:00;;;;;;;34.33;16.50;;;;;;;3.62;77.39;94606.03;5028301;28;20055;-75
2023/01/21 07:04:26;;;;;;;29.58;16.30;;;;;;;3.41;77.43;94576.16;5028079;28;20052;-74
2023/01/21 07:06:52;;;;;;;31.90;16.23;;;;;;;3.45;77.34;94572.78;5028992;28;20079;-75
2023/01/21 07:09:17;;;;;;;28.65;18.35;;;;;;;3.50;77.56;94569.44;5030467;28;20503;-76
2023/01/21 07:11:43;;;;;;;38.97;18.05;;;;;;;3.49;78.02;94571.28;5029266;28;20038;-75
2023/01/21 07:14:09;;;;;;;33.47;18.27;;;;;;;3.00;78.32;94512.72;5029420;28;20045;-75
2023/01/21 07:16:35;;;;;;;46.17;18.33;;;;;;;3.67;78.17;94585.88;5028046;28;20396;-75
2023/01/21 07:19:00;;;;;;;35.83;19.00;;;;;;;3.57;77.82;94550.91;5061440;28;20045;-75
2023/01/21 07:21:25;;;;;;;38.42;17.52;;;;;;;3.41;78.40;94508.78;5059638;28;20038;-76
2023/01/21 07:23:52;;;;;;;44.33;17.73;;;;;;;4.03;78.27;94607.28;5024773;28;20061;-75
2023/01/21 07:26:17;;;;;;;39.28;18.85;;;;;;;3.67;78.19;94528.19;5027678;28;20060;-75
2023/01/21 07:28:43;;;;;;;33.92;18.70;;;;;;;3.66;78.11;94536.34;5028517;28;20025;-75
2023/01/21 07:31:08;;;;;;;37.85;18.85;;;;;;;4.08;78.31;94587.13;5029059;28;20025;-75
2023/01/21 07:33:34;;;;;;;37.50;18.05;;;;;;;3.91;77.51;94539.22;5029011;28;20100;-75
2023/01/21 07:35:59;;;;;;;25.17;12.63;;;;;;;3.47;77.37;94463.25;5030230;28;20095;-75
2023/01/21 07:38:24;;;;;;;24.35;14.43;;;;;;;4.02;77.10;94540.91;5027566;28;20064;-75
2023/01/21 07:40:50;;;;;;;31.58;13.45;;;;;;;4.17;78.01;94600.63;5031242;28;20068;-75
2023/01/21 07:43:16;;;;;;;24.23;13.93;;;;;;;4.19;77.92;94565.22;5032534;28;20029;-75
2023/01/21 07:45:42;;;;;;;27.70;12.63;;;;;;;4.23;77.34;94552.38;5031367;28;20041;-76
2023/01/21 07:48:08;;;;;;;31.27;13.88;;;;;;;4.53;76.91;94588.59;5032020;28;20057;-74
2023/01/21 07:50:34;;;;;;;26.60;12.63;;;;;;;4.60;76.78;94597.06;5031519;28;20051;-75
2023/01/21 07:53:00;;;;;;;30.13;14.43;;;;;;;4.11;76.29;94497.44;5032081;28;20508;-75
2023/01/21 07:55:28;;;;;;;20.38;10.40;;;;;;;4.63;76.29;94571.09;5025277;28;20033;-76
2023/01/21 07:57:57;;;;;;;12.40;7.07;;;;;;;4.87;75.72;94604.91;5030513;28;20069;-75
2023/01/21 08:00:25;;;;;;;21.67;8.23;;;;;;;4.85;75.83;94588.59;5032201;28;20049;-75
2023/01/21 08:02:53;;;;;;;13.07;6.35;;;;;;;4.49;75.14;94520.06;5027109;28;20503;-76
2023/01/21 08:05:20;;;;;;;34.78;16.33;;;;;;;4.57;74.16;94530.09;5031379;28;20537;-75
2023/01/21 08:07:45;;;;;;;42.35;17.67;;;;;;;4.86;75.22;94588.34;5031557;28;20183;-75
2023/01/21 08:10:11;;;;;;;39.60;17.88;;;;;;;4.62;74.86;94518.81;5031774;28;20092;-75
2023/01/21 08:12:36;;;;;;;25.85;13.63;;;;;;;4.77;74.68;94555.72;5031415;28;20034;-76
2023/01/21 08:15:02;;;;;;;20.50;10.80;;;;;;;4.47;74.63;94524.75;5032297;28;20033;-76
2023/01/21 08:17:27;;;;;;;14.05;7.32;;;;;;;5.13;73.90;94619.81;5032355;28;20026;-76
2023/01/21 08:19:53;;;;;;;12.55;7.70;;;;;;;4.75;73.90;94549.91;5032139;28;20502;-75
2023/01/21 08:22:18;;;;;;;13.60;7.10;;;;;;;4.59;73.91;94512.22;5031810;28;20458;-75
2023/01/21 08:24:44;;;;;;;14.35;8.35;;;;;;;5.03;73.19;94570.59;5029829;28;20491;-76
2023/01/21 08:27:09;;;;;;;14.10;7.72;;;;;;;5.09;72.93;94568.00;5024204;28;20036;-76
2023/01/21 08:29:34;;;;;;;16.67;8.45;;;;;;;5.41;73.02;94606.34;5031434;28;20029;-75
2023/01/21 08:32:00;;;;;;;15.20;7.97;;;;;;;5.40;72.73;94603.94;5031246;28;20037;-76
2023/01/21 08:34:26;;;;;;;16.25;8.30;;;;;;;5.08;72.18;94567.22;5030318;28;20036;-76
2023/01/21 08:36:51;;;;;;;14.25;7.15;;;;;;;5.30;72.14;94590.72;5032648;28;20040;-75
2023/01/21 08:39:16;;;;;;;13.30;7.20;;;;;;;5.32;73.00;94613.09;5030720;28;20132;-75
2023/01/21 08:41:43;;;;;;;13.48;7.03;;;;;;;5.11;72.57;94553.53;5032778;28;20096;-75
2023/01/21 08:44:08;;;;;;;13.80;6.55;;;;;;;5.22;72.53;94549.16;5032364;28;20022;-75
2023/01/21 08:46:34;;;;;;;13.80;6.38;;;;;;;4.88;72.34;94511.91;5030206;28;20029;-75
2023/01/21 08:48:59;;;;;;;18.80;6.25;;;;;;;5.22;72.87;94557.03;5030354;28;20100;-75
2023/01/21 08:51:25;;;;;;;12.55;6.07;;;;;;;5.48;72.57;94574.53;5028491;28;20466;-75
2023/01/21 08:53:50;;;;;;;11.93;5.75;;;;;;;5.67;72.53;94611.69;5029166;28;20432;-75
2023/01/21 08:56:16;;;;;;;18.73;6.32;;;;;;;5.84;71.78;94617.56;5027917;28;20454;-75
2023/01/21 08:58:42;;;;;;;13.48;6.43;;;;;;;5.62;72.86;94573.03;5029489;28;20036;-74
2023/01/21 09:01:11;;;;;;;11.60;6.32;;;;;;;6.07;71.78;94624.25;5030235;28;20029;-75
2023/01/21 09:03:37;;;;;;;12.98;6.20;;;;;;;6.22;70.45;94623.53;5031008;28;20112;-75
2023/01/21 09:06:04;;;;;;;9.90;5.63;;;;;;;6.34;69.75;94627.50;5027708;28;20065;-75
2023/01/21 09:08:30;;;;;;;6.78;4.80;;;;;;;6.49;69.13;94630.16;5031256;28;20112;-75
2023/01/21 09:11:00;;;;;;;13.27;5.47;;;;;;;6.07;69.51;94540.81;5029585;28;20025;-75
2023/01/21 09:13:29;;;;;;;13.45;5.88;;;;;;;6.68;68.69;94614.66;5030212;28;20088;-75
2023/01/21 09:15:55;;;;;;;14.88;6.53;;;;;;;6.32;68.65;94545.34;5022151;28;20053;-75
2023/01/21 09:18:20;;;;;;;12.15;5.05;;;;;;;6.40;68.58;94550.09;5030957;28;20118;-75
2023/01/21 09:20:46;;;;;;;8.07;4.90;;;;;;;6.77;67.47;94596.47;5029996;28;20539;-76
2023/01/21 09:23:23;;;;;;;6.38;4.13;;;;;;;6.66;68.13;94573.81;5028081;28;20037;-75
2023/01/21 09:26:15;;;;;;;9.25;3.55;;;;;;;6.61;69.75;94565.91;5028301;28;20041;-75
2023/01/21 09:28:42;;;;;;;6.72;4.55;;;;;;;6.40;68.77;94522.97;5024348;28;20046;-75
2023/01/21 09:31:14;;;;;;;6.63;3.83;;;;;;;6.58;68.56;94552.19;5029619;28;20037;-75
2023/01/21 09:33:42;;;;;;;6.32;4.28;;;;;;;6.97;68.06;94607.81;5027917;28;20589;-75
2023/01/21 09:36:13;;;;;;;9.93;3.90;;;;;;;6.65;67.87;94538.75;5027826;28;20034;-75
2023/01/21 09:38:41;;;;;;;9.25;4.82;;;;;;;7.23;67.63;94591.97;5029054;28;20036;-75
2023/01/21 09:41:45;;;;;;;7.35;4.18;;;;;;;7.07;67.53;94579.84;5029624;28;20116;-75
2023/01/21 09:44:35;;;;;;;7.22;4.32;;;;;;;7.13;67.04;94584.06;5015313;28;20114;-75
2023/01/21 09:47:08;;;;;;;6.28;3.75;;;;;;;6.95;66.58;94530.81;5029943;28;20065;-75
2023/01/21 09:49:53;;;;;;;8.80;4.63;;;;;;;7.01;66.27;94529.00;5030422;28;20446;-75
2023/01/21 09:52:40;;;;;;;14.23;3.53;;;;;;;7.28;66.32;94582.19;5028710;28;20523;-75
2023/01/21 09:55:15;;;;;;;7.53;3.83;;;;;;;7.25;66.22;94584.56;5030099;28;20053;-75
2023/01/21 09:58:05;;;;;;;10.43;4.20;;;;;;;7.29;67.08;94581.13;5027673;28;20162;-75
2023/01/21 10:00:52;;;;;;;8.45;4.28;;;;;;;7.24;66.48;94575.09;5030445;28;20040;-75
2023/01/21 10:03:24;;;;;;;5.93;3.78;;;;;;;7.19;66.57;94573.22;5028651;28;20648;-75
2023/01/21 10:05:58;;;;;;;;;;;;;;;7.26;66.83;94565.03;5030535;28;20044;-75
2023/01/21 10:08:38;;;;;;;9.55;3.75;;;;;;;6.91;66.35;94518.44;5028749;28;20383;-75
2023/01/21 10:11:22;;;;;;;6.95;4.07;;;;;;;7.05;68.01;94551.13;5030643;28;20474;-75
2023/01/21 10:14:09;;;;;;;5.10;3.38;;;;;;;7.21;68.44;94565.06;5028916;28;20056;-74
2023/01/21 10:16:45;;;;;;;10.55;3.42;;;;;;;7.28;67.72;94549.75;5030134;28;20594;-75
2023/01/21 10:19:21;;;;;;;7.35;3.13;;;;;;;6.82;66.61;94473.38;5028812;28;20037;-75
2023/01/21 10:22:00;;;;;;;9.02;3.38;;;;;;;6.95;66.38;94488.63;5029946;28;20651;-75
2023/01/21 10:24:32;;;;;;;4.68;3.00;;;;;;;7.17;66.12;94514.69;5029543;28;20087;-75
2023/01/21 10:26:59;;;;;;;8.45;3.17;;;;;;;7.67;65.26;94481.28;5029644;28;20041;-75
2023/01/21 10:29:25;;;;;;;4.90;3.38;;;;;;;8.97;64.31;94540.63;5029866;28;20130;-75
2023/01/21 10:32:00;;;;;;;5.43;3.63;;;;;;;9.53;61.10;94486.09;5029683;28;20091;-75
2023/01/21 10:34:30;;;;;;;6.28;3.47;;;;;;;10.32;58.34;94484.50;5027127;28;20033;-75
2023/01/21 10:37:22;;;;;;;7.00;3.00;;;;;;;11.10;55.59;94482.94;5028852;28;20462;-75
2023/01/21 10:39:55;;;;;;;4.70;2.92;;;;;;;12.15;53.56;94537.75;5028557;28;20033;-75
2023/01/21 10:42:30;;;;;;;5.47;3.03;;;;;;;12.44;51.80;94534.72;5028321;28;20046;-75
2023/01/21 10:45:37;;;;;;;5.60;2.60;;;;;;;12.37;51.17;94526.38;5028054;28;20455;-75
2023/01/21 10:48:06;;;;;;;4.60;2.83;;;;;;;12.11;51.68;94512.84;4989121;28;20041;-76
2023/01/21 10:50:51;;;;;;;5.70;2.50;;;;;;;12.29;51.25;94508.47;5018713;28;20124;-75
2023/01/21 10:53:30;;;;;;;3.97;2.70;;;;;;;12.42;51.06;94482.94;5027052;28;20054;-75
2023/01/21 10:56:28;;;;;;;3.58;2.53;;;;;;;12.51;51.98;94500.50;5025864;28;20116;-75
2023/01/21 10:59:03;;;;;;;6.20;3.13;;;;;;;12.47;50.86;94458.88;5009394;28;20456;-75
2023/01/21 11:01:34;;;;;;;3.67;2.55;;;;;;;12.98;50.22;94501.00;5027749;28;20053;-75
2023/01/21 11:04:08;;;;;;;4.30;2.10;;;;;;;11.76;51.56;94471.06;5027213;28;20057;-76
2023/01/21 11:06:35;;;;;;;5.75;2.60;;;;;;;12.33;51.74;94478.34;5029445;28;20040;-75
2023/01/21 11:09:03;;;;;;;3.65;2.28;;;;;;;12.34;51.93;94458.63;5028145;28;20044;-75
2023/01/21 11:11:32;;;;;;;7.25;2.80;;;;;;;12.68;50.64;94483.91;5033861;28;20033;-75
2023/01/21 11:13:58;;;;;;;4.88;2.60;;;;;;;12.75;50.84;94486.91;5032518;28;20396;-75
2023/01/21 11:16:34;;;;;;;6.03;2.28;;;;;;;12.43;51.36;94441.97;5032460;28;20124;-76
2023/01/21 11:19:02;;;;;;;5.85;2.65;;;;;;;12.54;51.67;94469.88;5033766;28;20067;-75
2023/01/21 11:21:27;;;;;;;7.20;2.33;;;;;;;12.56;51.35;94462.38;5030986;28;20112;-75
2023/01/21 11:24:01;;;;;;;4.15;2.20;;;;;;;12.57;51.16;94456.78;5031574;28;20090;-76
2023/01/21 11:26:30;;;;;;;3.78;2.80;;;;;;;12.89;50.46;94463.69;5032842;28;20480;-75
2023/01/21 11:29:25;;;;;;;5.72;2.47;;;;;;;12.97;49.77;94504.75;5031860;28;20048;-76
2023/01/21 11:32:14;;;;;;;3.97;2.13;;;;;;;13.04;50.40;94483.81;5023373;28;20585;-75
2023/01/21 11:34:45;;;;;;;11.07;3.28;;;;;;;13.00;49.82;94498.81;5032011;28;20125;-76
2023/01/21 11:37:25;;;;;;;9.63;3.53;;;;;;;12.85;50.26;94454.75;5014608;28;20112;-75
2023/01/21 11:39:55;;;;;;;6.77;2.40;;;;;;;12.92;49.85;94471.06;5031166;28;20049;-75
2023/01/21 11:42:21;;;;;;;5.45;3.05;;;;;;;12.05;50.88;94418.38;5031836;28;20045;-75
2023/01/21 11:45:03;;;;;;;5.13;2.50;;;;;;;12.53;51.71;94478.94;5030818;28;20053;-75